sensor_id;sensor_type;location;lat;lon;timestamp;P1;durP1;ratioP1;P2;durP2;ratioP2
568;SDS011;269;48.884;9.192;2022-09-13T00:02:16;4.03;;;3.73;;
568;SDS011;269;48.884;9.192;2022-09-13T00:04:43;4.53;;;4.13;;
568;SDS011;269;48.884;9.192;2022-09-13T00:07:10;3.83;;;3.53;;
568;SDS011;269;48.884;9.192;2022-09-13T00:09:37;4.03;;;3.73;;
568;SDS011;269;48.884;9.192;2022-09-13T00:12:06;7.20;;;4.10;;
568;SDS011;269;48.884;9.192;2022-09-13T00:14:33;4.13;;;3.83;;
568;SDS011;269;48.884;9.192;2022-09-13T00:17:00;5.30;;;4.40;;
568;SDS011;269;48.884;9.192;2022-09-13T00:19:27;4.30;;;3.73;;
568;SDS011;269;48.884;9.192;2022-09-13T00:21:54;4.27;;;3.90;;
568;SDS011;269;48.884;9.192;2022-09-13T00:24:21;4.87;;;4.43;;
568;SDS011;269;48.884;9.192;2022-09-13T00:26:48;4.33;;;3.90;;
568;SDS011;269;48.884;9.192;2022-09-13T00:29:16;4.63;;;4.23;;
568;SDS011;269;48.884;9.192;2022-09-13T00:31:43;4.60;;;3.90;;
568;SDS011;269;48.884;9.192;2022-09-13T00:34:10;4.00;;;3.70;;
568;SDS011;269;48.884;9.192;2022-09-13T00:36:37;3.60;;;3.40;;
568;SDS011;269;48.884;9.192;2022-09-13T00:39:04;4.57;;;4.10;;
568;SDS011;269;48.884;9.192;2022-09-13T00:41:31;4.67;;;4.27;;
568;SDS011;269;48.884;9.192;2022-09-13T00:43:59;3.97;;;3.67;;
568;SDS011;269;48.884;9.192;2022-09-13T00:46:30;3.43;;;3.13;;
568;SDS011;269;48.884;9.192;2022-09-13T00:49:02;3.93;;;3.63;;
568;SDS011;269;48.884;9.192;2022-09-13T00:51:37;4.03;;;3.73;;
568;SDS011;269;48.884;9.192;2022-09-13T00:54:05;4.20;;;3.90;;
568;SDS011;269;48.884;9.192;2022-09-13T00:56:32;4.27;;;3.97;;
568;SDS011;269;48.884;9.192;2022-09-13T00:59:04;4.93;;;4.40;;
568;SDS011;269;48.884;9.192;2022-09-13T01:01:36;5.00;;;4.50;;
568;SDS011;269;48.884;9.192;2022-09-13T01:04:10;4.60;;;4.20;;
568;SDS011;269;48.884;9.192;2022-09-13T01:06:37;4.77;;;4.37;;
568;SDS011;269;48.884;9.192;2022-09-13T01:09:06;5.00;;;4.57;;
568;SDS011;269;48.884;9.192;2022-09-13T01:11:39;5.53;;;4.37;;
568;SDS011;269;48.884;9.192;2022-09-13T01:14:11;5.13;;;4.73;;
568;SDS011;269;48.884;9.192;2022-09-13T01:16:41;4.17;;;3.80;;
568;SDS011;269;48.884;9.192;2022-09-13T01:19:08;5.13;;;4.63;;
568;SDS011;269;48.884;9.192;2022-09-13T01:24:46;5.00;;;4.43;;
568;SDS011;269;48.884;9.192;2022-09-13T01:27:55;5.00;;;4.60;;
568;SDS011;269;48.884;9.192;2022-09-13T01:30:42;7.23;;;4.80;;
568;SDS011;269;48.884;9.192;2022-09-13T01:33:25;4.43;;;4.13;;
568;SDS011;269;48.884;9.192;2022-09-13T01:38:58;6.90;;;4.90;;
568;SDS011;269;48.884;9.192;2022-09-13T01:41:34;6.00;;;5.40;;
568;SDS011;269;48.884;9.192;2022-09-13T01:44:18;6.03;;;5.53;;
568;SDS011;269;48.884;9.192;2022-09-13T01:46:58;5.80;;;5.20;;
568;SDS011;269;48.884;9.192;2022-09-13T01:49:33;6.03;;;5.43;;
568;SDS011;269;48.884;9.192;2022-09-13T01:52:10;5.77;;;5.20;;
568;SDS011;269;48.884;9.192;2022-09-13T01:54:47;5.93;;;5.43;;
568;SDS011;269;48.884;9.192;2022-09-13T01:57:20;6.43;;;5.83;;
568;SDS011;269;48.884;9.192;2022-09-13T01:59:58;4.97;;;4.57;;
568;SDS011;269;48.884;9.192;2022-09-13T02:02:29;6.30;;;5.67;;
568;SDS011;269;48.884;9.192;2022-09-13T02:05:01;7.50;;;5.47;;
568;SDS011;269;48.884;9.192;2022-09-13T02:07:33;5.60;;;5.10;;
568;SDS011;269;48.884;9.192;2022-09-13T02:10:04;6.07;;;5.47;;
568;SDS011;269;48.884;9.192;2022-09-13T02:12:35;6.33;;;5.73;;
568;SDS011;269;48.884;9.192;2022-09-13T02:15:08;5.40;;;5.00;;
568;SDS011;269;48.884;9.192;2022-09-13T02:17:41;5.90;;;5.40;;
568;SDS011;269;48.884;9.192;2022-09-13T02:20:11;6.80;;;6.17;;
568;SDS011;269;48.884;9.192;2022-09-13T02:22:43;6.37;;;5.80;;
568;SDS011;269;48.884;9.192;2022-09-13T02:25:15;6.90;;;6.20;;
568;SDS011;269;48.884;9.192;2022-09-13T02:27:46;7.37;;;6.60;;
568;SDS011;269;48.884;9.192;2022-09-13T02:30:16;7.70;;;7.00;;
568;SDS011;269;48.884;9.192;2022-09-13T02:32:47;7.53;;;6.93;;
568;SDS011;269;48.884;9.192;2022-09-13T02:35:19;7.43;;;6.53;;
568;SDS011;269;48.884;9.192;2022-09-13T02:38:04;8.80;;;6.70;;
568;SDS011;269;48.884;9.192;2022-09-13T02:40:36;7.77;;;7.07;;
568;SDS011;269;48.884;9.192;2022-09-13T02:43:08;7.93;;;7.10;;
568;SDS011;269;48.884;9.192;2022-09-13T02:45:40;8.70;;;6.70;;
568;SDS011;269;48.884;9.192;2022-09-13T02:48:21;7.00;;;6.40;;
568;SDS011;269;48.884;9.192;2022-09-13T02:50:57;7.13;;;6.37;;
568;SDS011;269;48.884;9.192;2022-09-13T02:53:30;6.90;;;6.20;;
568;SDS011;269;48.884;9.192;2022-09-13T02:56:04;7.10;;;6.50;;
568;SDS011;269;48.884;9.192;2022-09-13T02:58:41;6.90;;;6.30;;
568;SDS011;269;48.884;9.192;2022-09-13T03:01:11;6.90;;;6.30;;
568;SDS011;269;48.884;9.192;2022-09-13T03:03:40;7.50;;;6.77;;
568;SDS011;269;48.884;9.192;2022-09-13T03:06:08;7.37;;;6.53;;
568;SDS011;269;48.884;9.192;2022-09-13T03:08:35;6.97;;;6.27;;
568;SDS011;269;48.884;9.192;2022-09-13T03:11:05;7.80;;;7.10;;
568;SDS011;269;48.884;9.192;2022-09-13T03:13:48;6.70;;;6.10;;
568;SDS011;269;48.884;9.192;2022-09-13T03:16:28;8.40;;;6.33;;
568;SDS011;269;48.884;9.192;2022-09-13T03:19:15;8.93;;;6.57;;
568;SDS011;269;48.884;9.192;2022-09-13T03:21:54;7.33;;;6.63;;
568;SDS011;269;48.884;9.192;2022-09-13T03:24:32;6.97;;;6.37;;
568;SDS011;269;48.884;9.192;2022-09-13T03:27:08;8.70;;;6.43;;
568;SDS011;269;48.884;9.192;2022-09-13T03:29:46;8.30;;;7.20;;
568;SDS011;269;48.884;9.192;2022-09-13T03:32:23;6.80;;;6.30;;
568;SDS011;269;48.884;9.192;2022-09-13T03:34:58;7.50;;;6.80;;
568;SDS011;269;48.884;9.192;2022-09-13T03:37:33;7.80;;;7.10;;
568;SDS011;269;48.884;9.192;2022-09-13T03:40:11;7.83;;;7.07;;
568;SDS011;269;48.884;9.192;2022-09-13T03:42:42;7.30;;;6.70;;
568;SDS011;269;48.884;9.192;2022-09-13T03:45:13;7.47;;;6.80;;
568;SDS011;269;48.884;9.192;2022-09-13T03:47:42;8.40;;;7.50;;
568;SDS011;269;48.884;9.192;2022-09-13T03:50:14;7.77;;;7.07;;
568;SDS011;269;48.884;9.192;2022-09-13T03:52:45;7.90;;;7.10;;
568;SDS011;269;48.884;9.192;2022-09-13T03:55:16;9.03;;;7.57;;
568;SDS011;269;48.884;9.192;2022-09-13T03:57:43;8.57;;;6.93;;
568;SDS011;269;48.884;9.192;2022-09-13T04:00:12;7.87;;;6.60;;
568;SDS011;269;48.884;9.192;2022-09-13T04:02:39;7.63;;;6.90;;
568;SDS011;269;48.884;9.192;2022-09-13T04:05:06;8.03;;;7.23;;
568;SDS011;269;48.884;9.192;2022-09-13T04:07:35;7.77;;;7.00;;
568;SDS011;269;48.884;9.192;2022-09-13T04:10:02;7.50;;;6.70;;
568;SDS011;269;48.884;9.192;2022-09-13T04:12:30;7.60;;;6.80;;
568;SDS011;269;48.884;9.192;2022-09-13T04:14:57;8.67;;;6.73;;
568;SDS011;269;48.884;9.192;2022-09-13T04:17:24;7.77;;;6.80;;
568;SDS011;269;48.884;9.192;2022-09-13T04:19:51;10.63;;;6.80;;
568;SDS011;269;48.884;9.192;2022-09-13T04:22:18;7.87;;;6.60;;
568;SDS011;269;48.884;9.192;2022-09-13T04:24:46;8.13;;;7.33;;
568;SDS011;269;48.884;9.192;2022-09-13T04:27:13;7.43;;;6.70;;
568;SDS011;269;48.884;9.192;2022-09-13T04:29:41;7.33;;;6.63;;
568;SDS011;269;48.884;9.192;2022-09-13T04:32:08;6.63;;;6.03;;
568;SDS011;269;48.884;9.192;2022-09-13T04:34:35;8.63;;;6.90;;
568;SDS011;269;48.884;9.192;2022-09-13T04:37:02;9.63;;;6.70;;
568;SDS011;269;48.884;9.192;2022-09-13T04:39:29;8.60;;;6.93;;
568;SDS011;269;48.884;9.192;2022-09-13T04:41:57;6.87;;;6.27;;
568;SDS011;269;48.884;9.192;2022-09-13T04:44:24;7.93;;;6.77;;
568;SDS011;269;48.884;9.192;2022-09-13T04:46:51;7.53;;;6.70;;
568;SDS011;269;48.884;9.192;2022-09-13T04:49:19;7.30;;;6.60;;
568;SDS011;269;48.884;9.192;2022-09-13T04:51:46;6.63;;;5.70;;
568;SDS011;269;48.884;9.192;2022-09-13T04:54:14;6.40;;;5.90;;
568;SDS011;269;48.884;9.192;2022-09-13T04:56:41;6.97;;;6.37;;
568;SDS011;269;48.884;9.192;2022-09-13T04:59:10;8.50;;;6.47;;
568;SDS011;269;48.884;9.192;2022-09-13T05:01:38;5.90;;;5.40;;
568;SDS011;269;48.884;9.192;2022-09-13T05:04:05;6.90;;;6.30;;
568;SDS011;269;48.884;9.192;2022-09-13T05:06:34;6.70;;;5.83;;
568;SDS011;269;48.884;9.192;2022-09-13T05:09:01;8.07;;;5.93;;
568;SDS011;269;48.884;9.192;2022-09-13T05:11:29;8.10;;;5.90;;
568;SDS011;269;48.884;9.192;2022-09-13T05:13:57;9.20;;;5.63;;
568;SDS011;269;48.884;9.192;2022-09-13T05:16:27;5.90;;;5.33;;
568;SDS011;269;48.884;9.192;2022-09-13T05:18:55;7.30;;;5.80;;
568;SDS011;269;48.884;9.192;2022-09-13T05:21:22;5.30;;;4.80;;
568;SDS011;269;48.884;9.192;2022-09-13T05:23:50;5.87;;;5.30;;
568;SDS011;269;48.884;9.192;2022-09-13T05:26:18;7.50;;;5.80;;
568;SDS011;269;48.884;9.192;2022-09-13T05:28:46;6.73;;;6.03;;
568;SDS011;269;48.884;9.192;2022-09-13T05:31:14;6.00;;;5.50;;
568;SDS011;269;48.884;9.192;2022-09-13T05:33:45;9.80;;;5.60;;
568;SDS011;269;48.884;9.192;2022-09-13T05:36:13;6.27;;;5.67;;
568;SDS011;269;48.884;9.192;2022-09-13T05:38:40;7.27;;;6.57;;
568;SDS011;269;48.884;9.192;2022-09-13T05:41:09;7.30;;;6.60;;
568;SDS011;269;48.884;9.192;2022-09-13T05:43:36;6.93;;;6.07;;
568;SDS011;269;48.884;9.192;2022-09-13T05:46:04;7.43;;;5.77;;
568;SDS011;269;48.884;9.192;2022-09-13T05:48:33;6.77;;;6.13;;
568;SDS011;269;48.884;9.192;2022-09-13T05:51:06;7.37;;;6.67;;
568;SDS011;269;48.884;9.192;2022-09-13T05:53:34;6.77;;;6.07;;
568;SDS011;269;48.884;9.192;2022-09-13T05:56:04;7.03;;;6.33;;
568;SDS011;269;48.884;9.192;2022-09-13T05:58:31;7.60;;;5.77;;
568;SDS011;269;48.884;9.192;2022-09-13T06:00:59;6.60;;;6.03;;
568;SDS011;269;48.884;9.192;2022-09-13T06:03:26;6.40;;;5.90;;
568;SDS011;269;48.884;9.192;2022-09-13T06:05:53;6.47;;;5.87;;
568;SDS011;269;48.884;9.192;2022-09-13T06:08:24;7.40;;;6.30;;
568;SDS011;269;48.884;9.192;2022-09-13T06:10:53;6.73;;;5.87;;
568;SDS011;269;48.884;9.192;2022-09-13T06:13:21;5.70;;;5.20;;
568;SDS011;269;48.884;9.192;2022-09-13T06:15:48;6.63;;;6.00;;
568;SDS011;269;48.884;9.192;2022-09-13T06:18:15;5.80;;;5.23;;
568;SDS011;269;48.884;9.192;2022-09-13T06:20:42;6.17;;;5.40;;
568;SDS011;269;48.884;9.192;2022-09-13T06:23:10;6.37;;;5.80;;
568;SDS011;269;48.884;9.192;2022-09-13T06:25:38;6.07;;;5.53;;
568;SDS011;269;48.884;9.192;2022-09-13T06:28:06;7.63;;;5.90;;
568;SDS011;269;48.884;9.192;2022-09-13T06:30:32;6.00;;;5.47;;
568;SDS011;269;48.884;9.192;2022-09-13T06:33:00;6.50;;;5.60;;
568;SDS011;269;48.884;9.192;2022-09-13T06:35:27;6.23;;;5.27;;
568;SDS011;269;48.884;9.192;2022-09-13T06:37:54;6.07;;;5.47;;
568;SDS011;269;48.884;9.192;2022-09-13T06:40:23;7.00;;;6.30;;
568;SDS011;269;48.884;9.192;2022-09-13T06:42:51;5.80;;;5.30;;
568;SDS011;269;48.884;9.192;2022-09-13T06:45:18;6.37;;;5.70;;
568;SDS011;269;48.884;9.192;2022-09-13T06:47:46;6.20;;;5.60;;
568;SDS011;269;48.884;9.192;2022-09-13T06:50:13;6.30;;;5.20;;
568;SDS011;269;48.884;9.192;2022-09-13T06:52:40;7.70;;;6.40;;
568;SDS011;269;48.884;9.192;2022-09-13T06:55:07;6.53;;;5.80;;
568;SDS011;269;48.884;9.192;2022-09-13T06:57:34;6.13;;;5.53;;
568;SDS011;269;48.884;9.192;2022-09-13T07:00:03;7.13;;;6.43;;
568;SDS011;269;48.884;9.192;2022-09-13T07:02:31;7.37;;;6.43;;
568;SDS011;269;48.884;9.192;2022-09-13T07:04:58;7.53;;;6.00;;
568;SDS011;269;48.884;9.192;2022-09-13T07:07:24;6.70;;;6.00;;
568;SDS011;269;48.884;9.192;2022-09-13T07:09:52;9.07;;;6.63;;
568;SDS011;269;48.884;9.192;2022-09-13T07:12:18;6.60;;;5.73;;
568;SDS011;269;48.884;9.192;2022-09-13T07:14:45;9.77;;;6.50;;
568;SDS011;269;48.884;9.192;2022-09-13T07:17:14;7.70;;;5.47;;
568;SDS011;269;48.884;9.192;2022-09-13T07:19:41;6.47;;;5.87;;
568;SDS011;269;48.884;9.192;2022-09-13T07:22:08;6.27;;;5.67;;
568;SDS011;269;48.884;9.192;2022-09-13T07:24:35;7.40;;;5.30;;
568;SDS011;269;48.884;9.192;2022-09-13T07:27:02;6.00;;;5.40;;
568;SDS011;269;48.884;9.192;2022-09-13T07:29:28;5.97;;;5.37;;
568;SDS011;269;48.884;9.192;2022-09-13T07:31:56;5.40;;;4.67;;
568;SDS011;269;48.884;9.192;2022-09-13T07:34:24;7.90;;;5.20;;
568;SDS011;269;48.884;9.192;2022-09-13T07:36:52;5.50;;;4.70;;
568;SDS011;269;48.884;9.192;2022-09-13T07:39:20;7.57;;;4.50;;
568;SDS011;269;48.884;9.192;2022-09-13T07:41:47;5.83;;;4.40;;
568;SDS011;269;48.884;9.192;2022-09-13T07:44:14;5.30;;;4.80;;
568;SDS011;269;48.884;9.192;2022-09-13T07:46:41;5.50;;;4.70;;
568;SDS011;269;48.884;9.192;2022-09-13T07:49:09;7.57;;;4.87;;
568;SDS011;269;48.884;9.192;2022-09-13T07:51:38;5.70;;;4.50;;
568;SDS011;269;48.884;9.192;2022-09-13T07:54:10;4.47;;;3.90;;
568;SDS011;269;48.884;9.192;2022-09-13T07:56:38;5.83;;;4.17;;
568;SDS011;269;48.884;9.192;2022-09-13T07:59:06;5.00;;;3.97;;
568;SDS011;269;48.884;9.192;2022-09-13T08:01:38;4.57;;;4.00;;
568;SDS011;269;48.884;9.192;2022-09-13T08:04:06;6.10;;;4.33;;
568;SDS011;269;48.884;9.192;2022-09-13T08:06:35;4.53;;;3.90;;
568;SDS011;269;48.884;9.192;2022-09-13T08:09:05;5.23;;;3.60;;
568;SDS011;269;48.884;9.192;2022-09-13T08:11:34;3.43;;;3.13;;
568;SDS011;269;48.884;9.192;2022-09-13T08:14:02;3.90;;;3.27;;
568;SDS011;269;48.884;9.192;2022-09-13T08:16:31;5.00;;;3.70;;
568;SDS011;269;48.884;9.192;2022-09-13T08:18:59;2.97;;;2.67;;
568;SDS011;269;48.884;9.192;2022-09-13T08:21:30;3.33;;;3.07;;
568;SDS011;269;48.884;9.192;2022-09-13T08:23:58;5.47;;;3.20;;
568;SDS011;269;48.884;9.192;2022-09-13T08:26:26;3.00;;;2.70;;
568;SDS011;269;48.884;9.192;2022-09-13T08:28:54;3.10;;;2.80;;
568;SDS011;269;48.884;9.192;2022-09-13T08:31:22;2.90;;;2.70;;
568;SDS011;269;48.884;9.192;2022-09-13T08:33:50;7.60;;;2.97;;
568;SDS011;269;48.884;9.192;2022-09-13T08:36:17;3.00;;;2.80;;
568;SDS011;269;48.884;9.192;2022-09-13T08:38:46;4.00;;;3.70;;
568;SDS011;269;48.884;9.192;2022-09-13T08:44:34;3.70;;;3.17;;
568;SDS011;269;48.884;9.192;2022-09-13T08:47:08;3.83;;;3.37;;
568;SDS011;269;48.884;9.192;2022-09-13T08:49:50;2.80;;;2.50;;
568;SDS011;269;48.884;9.192;2022-09-13T08:52:27;3.07;;;2.77;;
568;SDS011;269;48.884;9.192;2022-09-13T08:54:57;3.10;;;2.80;;
568;SDS011;269;48.884;9.192;2022-09-13T08:57:29;3.20;;;2.87;;
568;SDS011;269;48.884;9.192;2022-09-13T09:00:03;3.40;;;2.30;;
568;SDS011;269;48.884;9.192;2022-09-13T09:02:46;3.53;;;2.30;;
568;SDS011;269;48.884;9.192;2022-09-13T09:05:23;3.10;;;2.27;;
568;SDS011;269;48.884;9.192;2022-09-13T09:07:52;3.33;;;2.40;;
568;SDS011;269;48.884;9.192;2022-09-13T09:10:25;3.53;;;2.70;;
568;SDS011;269;48.884;9.192;2022-09-13T09:12:57;3.60;;;2.80;;
568;SDS011;269;48.884;9.192;2022-09-13T09:15:29;2.70;;;2.40;;
568;SDS011;269;48.884;9.192;2022-09-13T09:18:02;3.40;;;3.00;;
568;SDS011;269;48.884;9.192;2022-09-13T09:20:35;3.30;;;2.50;;
568;SDS011;269;48.884;9.192;2022-09-13T09:23:06;3.93;;;2.70;;
568;SDS011;269;48.884;9.192;2022-09-13T09:25:39;3.17;;;2.77;;
568;SDS011;269;48.884;9.192;2022-09-13T09:28:08;2.73;;;2.53;;
568;SDS011;269;48.884;9.192;2022-09-13T09:30:40;3.20;;;2.90;;
568;SDS011;269;48.884;9.192;2022-09-13T09:36:10;2.93;;;2.63;;
568;SDS011;269;48.884;9.192;2022-09-13T09:38:44;4.03;;;2.20;;
568;SDS011;269;48.884;9.192;2022-09-13T09:41:13;2.60;;;2.20;;
568;SDS011;269;48.884;9.192;2022-09-13T09:43:53;3.10;;;2.70;;
568;SDS011;269;48.884;9.192;2022-09-13T09:46:26;2.40;;;2.17;;
568;SDS011;269;48.884;9.192;2022-09-13T09:48:58;2.83;;;2.40;;
568;SDS011;269;48.884;9.192;2022-09-13T09:51:50;2.33;;;2.03;;
568;SDS011;269;48.884;9.192;2022-09-13T09:54:20;2.87;;;2.03;;
568;SDS011;269;48.884;9.192;2022-09-13T09:56:52;1.97;;;1.77;;
568;SDS011;269;48.884;9.192;2022-09-13T09:59:24;2.90;;;1.70;;
568;SDS011;269;48.884;9.192;2022-09-13T10:01:54;2.10;;;2.00;;
568;SDS011;269;48.884;9.192;2022-09-13T10:04:22;2.30;;;2.10;;
568;SDS011;269;48.884;9.192;2022-09-13T10:07:06;1.80;;;1.70;;
568;SDS011;269;48.884;9.192;2022-09-13T10:09:36;2.53;;;2.33;;
568;SDS011;269;48.884;9.192;2022-09-13T10:12:05;2.10;;;1.90;;
568;SDS011;269;48.884;9.192;2022-09-13T10:14:36;2.70;;;1.70;;
568;SDS011;269;48.884;9.192;2022-09-13T10:17:13;1.90;;;1.80;;
568;SDS011;269;48.884;9.192;2022-09-13T10:19:53;3.07;;;2.13;;
568;SDS011;269;48.884;9.192;2022-09-13T10:22:23;3.03;;;2.00;;
568;SDS011;269;48.884;9.192;2022-09-13T10:24:51;1.97;;;1.87;;
568;SDS011;269;48.884;9.192;2022-09-13T10:27:20;2.27;;;2.17;;
568;SDS011;269;48.884;9.192;2022-09-13T10:29:51;2.30;;;2.07;;
568;SDS011;269;48.884;9.192;2022-09-13T10:32:25;4.77;;;2.30;;
568;SDS011;269;48.884;9.192;2022-09-13T10:34:54;2.23;;;2.03;;
568;SDS011;269;48.884;9.192;2022-09-13T10:37:26;1.90;;;1.80;;
568;SDS011;269;48.884;9.192;2022-09-13T10:40:00;1.80;;;1.70;;
568;SDS011;269;48.884;9.192;2022-09-13T10:42:31;2.03;;;1.90;;
568;SDS011;269;48.884;9.192;2022-09-13T10:44:59;1.90;;;1.80;;
568;SDS011;269;48.884;9.192;2022-09-13T10:47:30;1.70;;;1.60;;
568;SDS011;269;48.884;9.192;2022-09-13T10:50:17;2.70;;;1.60;;
568;SDS011;269;48.884;9.192;2022-09-13T10:52:45;1.80;;;1.70;;
568;SDS011;269;48.884;9.192;2022-09-13T10:55:23;2.93;;;1.50;;
568;SDS011;269;48.884;9.192;2022-09-13T10:57:54;3.13;;;1.63;;
568;SDS011;269;48.884;9.192;2022-09-13T11:00:38;1.27;;;1.17;;
568;SDS011;269;48.884;9.192;2022-09-13T11:03:24;1.43;;;1.20;;
568;SDS011;269;48.884;9.192;2022-09-13T11:06:09;1.40;;;1.30;;
568;SDS011;269;48.884;9.192;2022-09-13T11:08:46;1.93;;;1.27;;
568;SDS011;269;48.884;9.192;2022-09-13T11:11:20;1.23;;;1.13;;
568;SDS011;269;48.884;9.192;2022-09-13T11:13:58;1.47;;;1.10;;
568;SDS011;269;48.884;9.192;2022-09-13T11:16:36;1.70;;;1.10;;
568;SDS011;269;48.884;9.192;2022-09-13T11:19:19;1.30;;;1.20;;
568;SDS011;269;48.884;9.192;2022-09-13T11:22:07;1.40;;;1.30;;
568;SDS011;269;48.884;9.192;2022-09-13T11:24:58;1.30;;;1.20;;
568;SDS011;269;48.884;9.192;2022-09-13T11:27:33;1.30;;;1.10;;
568;SDS011;269;48.884;9.192;2022-09-13T11:30:09;1.30;;;1.20;;
568;SDS011;269;48.884;9.192;2022-09-13T11:32:47;2.63;;;1.40;;
568;SDS011;269;48.884;9.192;2022-09-13T11:35:26;1.47;;;1.37;;
568;SDS011;269;48.884;9.192;2022-09-13T11:38:03;2.20;;;1.23;;
568;SDS011;269;48.884;9.192;2022-09-13T11:40:44;2.20;;;1.47;;
568;SDS011;269;48.884;9.192;2022-09-13T11:43:20;1.83;;;1.30;;
568;SDS011;269;48.884;9.192;2022-09-13T11:46:05;1.30;;;1.10;;
568;SDS011;269;48.884;9.192;2022-09-13T11:48:43;1.77;;;1.50;;
568;SDS011;269;48.884;9.192;2022-09-13T11:51:33;1.63;;;1.30;;
568;SDS011;269;48.884;9.192;2022-09-13T11:54:12;1.20;;;1.10;;
568;SDS011;269;48.884;9.192;2022-09-13T11:56:47;2.10;;;1.20;;
568;SDS011;269;48.884;9.192;2022-09-13T11:59:18;1.53;;;1.43;;
568;SDS011;269;48.884;9.192;2022-09-13T12:01:53;1.67;;;1.10;;
568;SDS011;269;48.884;9.192;2022-09-13T12:04:24;1.47;;;1.13;;
568;SDS011;269;48.884;9.192;2022-09-13T12:06:58;1.60;;;1.20;;
568;SDS011;269;48.884;9.192;2022-09-13T12:09:28;1.30;;;1.20;;
568;SDS011;269;48.884;9.192;2022-09-13T12:12:02;1.43;;;1.30;;
568;SDS011;269;48.884;9.192;2022-09-13T12:14:33;4.20;;;3.90;;
568;SDS011;269;48.884;9.192;2022-09-13T12:17:11;2.97;;;2.40;;
568;SDS011;269;48.884;9.192;2022-09-13T12:19:49;1.60;;;0.97;;
568;SDS011;269;48.884;9.192;2022-09-13T12:22:20;2.30;;;1.13;;
568;SDS011;269;48.884;9.192;2022-09-13T12:24:50;1.93;;;1.30;;
568;SDS011;269;48.884;9.192;2022-09-13T12:27:21;1.33;;;1.20;;
568;SDS011;269;48.884;9.192;2022-09-13T12:29:53;2.10;;;1.13;;
568;SDS011;269;48.884;9.192;2022-09-13T12:32:22;1.20;;;1.10;;
568;SDS011;269;48.884;9.192;2022-09-13T12:34:50;1.97;;;1.27;;
568;SDS011;269;48.884;9.192;2022-09-13T12:37:35;1.13;;;1.00;;
568;SDS011;269;48.884;9.192;2022-09-13T12:40:22;1.40;;;1.30;;
568;SDS011;269;48.884;9.192;2022-09-13T12:43:07;1.20;;;1.10;;
568;SDS011;269;48.884;9.192;2022-09-13T12:48:36;1.43;;;1.33;;
568;SDS011;269;48.884;9.192;2022-09-13T12:51:19;1.57;;;1.20;;
568;SDS011;269;48.884;9.192;2022-09-13T12:54:08;1.50;;;1.10;;
568;SDS011;269;48.884;9.192;2022-09-13T12:56:50;1.47;;;1.20;;
568;SDS011;269;48.884;9.192;2022-09-13T12:59:32;1.20;;;1.10;;
568;SDS011;269;48.884;9.192;2022-09-13T13:02:21;1.67;;;1.20;;
568;SDS011;269;48.884;9.192;2022-09-13T13:04:53;2.27;;;1.20;;
568;SDS011;269;48.884;9.192;2022-09-13T13:07:23;1.20;;;1.00;;
568;SDS011;269;48.884;9.192;2022-09-13T13:09:54;2.40;;;1.07;;
568;SDS011;269;48.884;9.192;2022-09-13T13:12:26;2.80;;;0.90;;
568;SDS011;269;48.884;9.192;2022-09-13T13:14:56;1.67;;;1.47;;
568;SDS011;269;48.884;9.192;2022-09-13T13:17:34;1.83;;;1.40;;
568;SDS011;269;48.884;9.192;2022-09-13T13:23:13;1.70;;;1.00;;
568;SDS011;269;48.884;9.192;2022-09-13T13:25:57;1.23;;;1.13;;
568;SDS011;269;48.884;9.192;2022-09-13T13:31:33;1.10;;;1.00;;
568;SDS011;269;48.884;9.192;2022-09-13T13:37:01;3.20;;;1.23;;
568;SDS011;269;48.884;9.192;2022-09-13T13:39:34;3.43;;;1.50;;
568;SDS011;269;48.884;9.192;2022-09-13T13:42:10;2.00;;;1.03;;
568;SDS011;269;48.884;9.192;2022-09-13T13:47:41;1.20;;;1.10;;
568;SDS011;269;48.884;9.192;2022-09-13T13:50:19;2.03;;;1.63;;
568;SDS011;269;48.884;9.192;2022-09-13T13:52:50;1.90;;;1.27;;
568;SDS011;269;48.884;9.192;2022-09-13T13:55:22;1.47;;;1.00;;
568;SDS011;269;48.884;9.192;2022-09-13T13:58:14;1.30;;;1.20;;
568;SDS011;269;48.884;9.192;2022-09-13T14:00:53;1.10;;;1.00;;
568;SDS011;269;48.884;9.192;2022-09-13T14:03:22;1.30;;;0.90;;
568;SDS011;269;48.884;9.192;2022-09-13T14:05:59;1.10;;;1.00;;
568;SDS011;269;48.884;9.192;2022-09-13T14:11:28;1.20;;;1.00;;
568;SDS011;269;48.884;9.192;2022-09-13T14:14:17;1.20;;;1.10;;
568;SDS011;269;48.884;9.192;2022-09-13T14:17:19;1.30;;;1.00;;
568;SDS011;269;48.884;9.192;2022-09-13T14:20:03;1.43;;;1.00;;
568;SDS011;269;48.884;9.192;2022-09-13T14:22:34;1.13;;;1.00;;
568;SDS011;269;48.884;9.192;2022-09-13T14:25:11;1.37;;;1.27;;
568;SDS011;269;48.884;9.192;2022-09-13T14:27:41;1.20;;;0.90;;
568;SDS011;269;48.884;9.192;2022-09-13T14:30:16;1.03;;;0.93;;
568;SDS011;269;48.884;9.192;2022-09-13T14:32:46;1.40;;;0.90;;
568;SDS011;269;48.884;9.192;2022-09-13T14:35:21;1.20;;;1.00;;
568;SDS011;269;48.884;9.192;2022-09-13T14:37:51;1.90;;;0.93;;
568;SDS011;269;48.884;9.192;2022-09-13T14:40:19;0.97;;;0.87;;
568;SDS011;269;48.884;9.192;2022-09-13T14:42:48;1.43;;;0.87;;
568;SDS011;269;48.884;9.192;2022-09-13T14:45:19;1.03;;;0.80;;
568;SDS011;269;48.884;9.192;2022-09-13T14:47:50;1.73;;;0.80;;
568;SDS011;269;48.884;9.192;2022-09-13T14:50:22;0.90;;;0.80;;
568;SDS011;269;48.884;9.192;2022-09-13T14:52:52;1.00;;;0.90;;
568;SDS011;269;48.884;9.192;2022-09-13T14:55:23;1.13;;;0.90;;
568;SDS011;269;48.884;9.192;2022-09-13T14:57:54;0.90;;;0.70;;
568;SDS011;269;48.884;9.192;2022-09-13T15:00:29;1.87;;;0.90;;
568;SDS011;269;48.884;9.192;2022-09-13T15:03:00;0.80;;;0.70;;
568;SDS011;269;48.884;9.192;2022-09-13T15:05:29;1.20;;;1.10;;
568;SDS011;269;48.884;9.192;2022-09-13T15:07:58;1.70;;;1.60;;
568;SDS011;269;48.884;9.192;2022-09-13T15:10:26;1.90;;;1.70;;
568;SDS011;269;48.884;9.192;2022-09-13T15:12:55;0.93;;;0.83;;
568;SDS011;269;48.884;9.192;2022-09-13T15:15:35;0.90;;;0.70;;
568;SDS011;269;48.884;9.192;2022-09-13T15:18:04;1.20;;;1.10;;
568;SDS011;269;48.884;9.192;2022-09-13T15:20:45;1.20;;;1.10;;
568;SDS011;269;48.884;9.192;2022-09-13T15:23:15;0.80;;;0.80;;
568;SDS011;269;48.884;9.192;2022-09-13T15:25:46;1.57;;;1.20;;
568;SDS011;269;48.884;9.192;2022-09-13T15:28:20;1.17;;;1.07;;
568;SDS011;269;48.884;9.192;2022-09-13T15:30:51;1.00;;;0.87;;
568;SDS011;269;48.884;9.192;2022-09-13T15:33:23;1.00;;;0.90;;
568;SDS011;269;48.884;9.192;2022-09-13T15:35:55;1.60;;;1.50;;
568;SDS011;269;48.884;9.192;2022-09-13T15:41:26;2.10;;;1.10;;
568;SDS011;269;48.884;9.192;2022-09-13T15:43:55;1.40;;;1.20;;
568;SDS011;269;48.884;9.192;2022-09-13T15:46:23;1.63;;;1.20;;
568;SDS011;269;48.884;9.192;2022-09-13T15:48:51;2.43;;;0.97;;
568;SDS011;269;48.884;9.192;2022-09-13T15:51:19;0.97;;;0.83;;
568;SDS011;269;48.884;9.192;2022-09-13T15:53:47;1.00;;;0.90;;
568;SDS011;269;48.884;9.192;2022-09-13T15:56:16;1.33;;;1.23;;
568;SDS011;269;48.884;9.192;2022-09-13T15:58:45;1.17;;;1.07;;
568;SDS011;269;48.884;9.192;2022-09-13T16:01:13;1.20;;;1.10;;
568;SDS011;269;48.884;9.192;2022-09-13T16:03:42;1.50;;;1.40;;
568;SDS011;269;48.884;9.192;2022-09-13T16:06:09;1.70;;;1.60;;
568;SDS011;269;48.884;9.192;2022-09-13T16:08:37;2.53;;;2.40;;
568;SDS011;269;48.884;9.192;2022-09-13T16:11:05;1.80;;;1.30;;
568;SDS011;269;48.884;9.192;2022-09-13T16:13:33;2.10;;;1.33;;
568;SDS011;269;48.884;9.192;2022-09-13T16:16:00;1.20;;;1.10;;
568;SDS011;269;48.884;9.192;2022-09-13T16:18:29;1.40;;;1.30;;
568;SDS011;269;48.884;9.192;2022-09-13T16:20:58;2.03;;;1.13;;
568;SDS011;269;48.884;9.192;2022-09-13T16:23:25;1.53;;;1.30;;
568;SDS011;269;48.884;9.192;2022-09-13T16:25:53;2.20;;;1.50;;
568;SDS011;269;48.884;9.192;2022-09-13T16:28:22;1.30;;;1.20;;
568;SDS011;269;48.884;9.192;2022-09-13T16:30:50;1.40;;;1.30;;
568;SDS011;269;48.884;9.192;2022-09-13T16:33:17;2.77;;;1.40;;
568;SDS011;269;48.884;9.192;2022-09-13T16:35:45;1.53;;;1.20;;
568;SDS011;269;48.884;9.192;2022-09-13T16:38:13;1.20;;;1.10;;
568;SDS011;269;48.884;9.192;2022-09-13T16:40:40;1.67;;;1.57;;
568;SDS011;269;48.884;9.192;2022-09-13T16:43:09;2.50;;;2.30;;
568;SDS011;269;48.884;9.192;2022-09-13T16:45:37;2.30;;;1.83;;
568;SDS011;269;48.884;9.192;2022-09-13T16:48:05;2.00;;;1.80;;